sensor_id;sensor_type;location;lat;lon;timestamp;P1;durP1;ratioP1;P2;durP2;ratioP2
64395;SDS011;50717;53.360;6.290;2022-12-01T00:01:40;134.15;;;48.70;;
64395;SDS011;50717;53.360;6.290;2022-12-01T00:04:06;155.32;;;50.17;;
64395;SDS011;50717;53.360;6.290;2022-12-01T00:06:32;146.45;;;48.97;;
64395;SDS011;50717;53.360;6.290;2022-12-01T00:08:57;157.65;;;49.30;;
64395;SDS011;50717;53.360;6.290;2022-12-01T00:11:42;157.82;;;49.78;;
64395;SDS011;50717;53.360;6.290;2022-12-01T00:16:34;141.38;;;46.55;;
64395;SDS011;50717;53.360;6.290;2022-12-01T00:19:00;146.23;;;49.47;;
64395;SDS011;50717;53.360;6.290;2022-12-01T00:21:26;161.55;;;50.72;;
64395;SDS011;50717;53.360;6.290;2022-12-01T00:23:53;160.68;;;50.92;;
64395;SDS011;50717;53.360;6.290;2022-12-01T00:26:20;162.02;;;50.40;;
64395;SDS011;50717;53.360;6.290;2022-12-01T00:28:48;145.98;;;47.38;;
64395;SDS011;50717;53.360;6.290;2022-12-01T00:31:14;157.73;;;48.70;;
64395;SDS011;50717;53.360;6.290;2022-12-01T00:33:40;155.93;;;49.72;;
64395;SDS011;50717;53.360;6.290;2022-12-01T00:36:06;161.52;;;50.85;;
64395;SDS011;50717;53.360;6.290;2022-12-01T00:38:32;167.13;;;50.40;;
64395;SDS011;50717;53.360;6.290;2022-12-01T00:40:58;155.40;;;49.80;;
64395;SDS011;50717;53.360;6.290;2022-12-01T00:43:24;146.30;;;46.88;;
64395;SDS011;50717;53.360;6.290;2022-12-01T00:45:49;152.07;;;48.03;;
64395;SDS011;50717;53.360;6.290;2022-12-01T00:48:15;145.48;;;47.25;;
64395;SDS011;50717;53.360;6.290;2022-12-01T00:50:41;164.57;;;49.13;;
64395;SDS011;50717;53.360;6.290;2022-12-01T00:55:33;148.50;;;48.83;;
64395;SDS011;50717;53.360;6.290;2022-12-01T00:57:59;144.75;;;47.85;;
64395;SDS011;50717;53.360;6.290;2022-12-01T01:00:25;156.80;;;49.95;;
64395;SDS011;50717;53.360;6.290;2022-12-01T01:02:50;155.65;;;49.70;;
64395;SDS011;50717;53.360;6.290;2022-12-01T01:05:16;149.05;;;50.05;;
64395;SDS011;50717;53.360;6.290;2022-12-01T01:07:42;153.95;;;49.25;;
64395;SDS011;50717;53.360;6.290;2022-12-01T01:10:07;148.30;;;49.05;;
64395;SDS011;50717;53.360;6.290;2022-12-01T01:14:59;148.65;;;48.45;;
64395;SDS011;50717;53.360;6.290;2022-12-01T01:17:25;142.00;;;48.58;;
64395;SDS011;50717;53.360;6.290;2022-12-01T01:19:51;149.82;;;47.90;;
64395;SDS011;50717;53.360;6.290;2022-12-01T01:22:17;151.90;;;48.95;;
64395;SDS011;50717;53.360;6.290;2022-12-01T01:24:43;150.68;;;49.65;;
64395;SDS011;50717;53.360;6.290;2022-12-01T01:27:09;145.52;;;48.67;;
64395;SDS011;50717;53.360;6.290;2022-12-01T01:29:35;144.43;;;48.58;;
64395;SDS011;50717;53.360;6.290;2022-12-01T01:32:00;146.98;;;49.25;;
64395;SDS011;50717;53.360;6.290;2022-12-01T01:34:27;162.25;;;49.28;;
64395;SDS011;50717;53.360;6.290;2022-12-01T01:36:52;153.75;;;49.28;;
64395;SDS011;50717;53.360;6.290;2022-12-01T01:39:18;143.05;;;49.78;;
64395;SDS011;50717;53.360;6.290;2022-12-01T01:41:43;143.88;;;47.90;;
64395;SDS011;50717;53.360;6.290;2022-12-01T01:47:13;142.52;;;48.75;;
64395;SDS011;50717;53.360;6.290;2022-12-01T01:49:42;142.35;;;48.95;;
64395;SDS011;50717;53.360;6.290;2022-12-01T01:52:07;133.35;;;49.30;;
64395;SDS011;50717;53.360;6.290;2022-12-01T01:54:34;153.02;;;52.65;;
64395;SDS011;50717;53.360;6.290;2022-12-01T01:57:06;143.65;;;48.47;;
64395;SDS011;50717;53.360;6.290;2022-12-01T01:59:36;135.65;;;48.97;;
64395;SDS011;50717;53.360;6.290;2022-12-01T02:02:07;132.90;;;48.83;;
64395;SDS011;50717;53.360;6.290;2022-12-01T02:04:35;138.23;;;47.30;;
64395;SDS011;50717;53.360;6.290;2022-12-01T02:07:06;155.48;;;49.72;;
64395;SDS011;50717;53.360;6.290;2022-12-01T02:09:32;140.52;;;48.38;;
64395;SDS011;50717;53.360;6.290;2022-12-01T02:14:54;137.10;;;49.10;;
64395;SDS011;50717;53.360;6.290;2022-12-01T02:17:36;152.88;;;51.30;;
64395;SDS011;50717;53.360;6.290;2022-12-01T02:26:00;148.35;;;50.63;;
64395;SDS011;50717;53.360;6.290;2022-12-01T02:37:22;155.48;;;50.25;;
64395;SDS011;50717;53.360;6.290;2022-12-01T02:42:42;162.38;;;49.53;;
64395;SDS011;50717;53.360;6.290;2022-12-01T02:48:26;147.75;;;50.03;;
64395;SDS011;50717;53.360;6.290;2022-12-01T02:50:55;144.73;;;49.58;;
64395;SDS011;50717;53.360;6.290;2022-12-01T02:53:24;157.30;;;52.20;;
64395;SDS011;50717;53.360;6.290;2022-12-01T02:55:51;155.27;;;48.85;;
64395;SDS011;50717;53.360;6.290;2022-12-01T02:58:19;150.13;;;51.10;;
64395;SDS011;50717;53.360;6.290;2022-12-01T03:00:53;154.23;;;48.65;;
64395;SDS011;50717;53.360;6.290;2022-12-01T03:12:26;143.98;;;49.35;;
64395;SDS011;50717;53.360;6.290;2022-12-01T03:15:17;147.77;;;48.60;;
64395;SDS011;50717;53.360;6.290;2022-12-01T03:18:10;145.50;;;49.17;;
64395;SDS011;50717;53.360;6.290;2022-12-01T03:20:54;154.55;;;51.40;;
64395;SDS011;50717;53.360;6.290;2022-12-01T03:23:27;154.95;;;51.70;;
64395;SDS011;50717;53.360;6.290;2022-12-01T03:25:56;152.60;;;46.92;;
64395;SDS011;50717;53.360;6.290;2022-12-01T03:28:27;155.75;;;50.55;;
64395;SDS011;50717;53.360;6.290;2022-12-01T03:30:58;150.30;;;49.38;;
64395;SDS011;50717;53.360;6.290;2022-12-01T03:33:30;144.20;;;49.88;;
64395;SDS011;50717;53.360;6.290;2022-12-01T03:36:04;149.52;;;48.00;;
64395;SDS011;50717;53.360;6.290;2022-12-01T03:38:31;138.93;;;49.03;;
64395;SDS011;50717;53.360;6.290;2022-12-01T03:41:02;140.85;;;48.42;;
64395;SDS011;50717;53.360;6.290;2022-12-01T03:43:32;145.55;;;49.03;;
64395;SDS011;50717;53.360;6.290;2022-12-01T03:46:16;142.23;;;47.53;;
64395;SDS011;50717;53.360;6.290;2022-12-01T03:48:48;142.30;;;48.35;;
64395;SDS011;50717;53.360;6.290;2022-12-01T03:51:29;142.02;;;47.47;;
64395;SDS011;50717;53.360;6.290;2022-12-01T03:56:37;127.90;;;45.95;;
64395;SDS011;50717;53.360;6.290;2022-12-01T03:59:10;121.63;;;43.50;;
64395;SDS011;50717;53.360;6.290;2022-12-01T04:01:37;128.75;;;45.20;;
64395;SDS011;50717;53.360;6.290;2022-12-01T04:04:07;129.10;;;44.75;;
64395;SDS011;50717;53.360;6.290;2022-12-01T04:06:35;127.60;;;44.70;;
64395;SDS011;50717;53.360;6.290;2022-12-01T04:09:02;119.32;;;44.35;;
64395;SDS011;50717;53.360;6.290;2022-12-01T04:11:28;112.63;;;43.47;;
64395;SDS011;50717;53.360;6.290;2022-12-01T04:14:12;113.88;;;42.53;;
64395;SDS011;50717;53.360;6.290;2022-12-01T04:16:38;114.00;;;41.30;;
64395;SDS011;50717;53.360;6.290;2022-12-01T04:19:04;108.38;;;39.78;;
64395;SDS011;50717;53.360;6.290;2022-12-01T04:21:30;94.60;;;38.30;;
64395;SDS011;50717;53.360;6.290;2022-12-01T04:23:55;91.63;;;37.95;;
64395;SDS011;50717;53.360;6.290;2022-12-01T04:26:24;98.18;;;37.08;;
64395;SDS011;50717;53.360;6.290;2022-12-01T04:28:51;90.95;;;38.33;;
64395;SDS011;50717;53.360;6.290;2022-12-01T04:31:16;79.95;;;34.83;;
64395;SDS011;50717;53.360;6.290;2022-12-01T04:33:42;84.80;;;35.60;;
64395;SDS011;50717;53.360;6.290;2022-12-01T04:36:08;86.93;;;34.60;;
64395;SDS011;50717;53.360;6.290;2022-12-01T04:38:34;80.05;;;34.33;;
64395;SDS011;50717;53.360;6.290;2022-12-01T04:41:09;84.63;;;35.28;;
64395;SDS011;50717;53.360;6.290;2022-12-01T04:43:35;83.25;;;33.20;;
64395;SDS011;50717;53.360;6.290;2022-12-01T04:46:01;64.30;;;29.85;;
64395;SDS011;50717;53.360;6.290;2022-12-01T04:48:28;57.35;;;26.08;;
64395;SDS011;50717;53.360;6.290;2022-12-01T04:50:54;47.97;;;22.23;;
64395;SDS011;50717;53.360;6.290;2022-12-01T04:53:19;42.05;;;21.13;;
64395;SDS011;50717;53.360;6.290;2022-12-01T04:55:45;41.45;;;19.17;;
64395;SDS011;50717;53.360;6.290;2022-12-01T04:58:11;37.42;;;17.60;;
64395;SDS011;50717;53.360;6.290;2022-12-01T05:00:37;34.95;;;17.40;;
64395;SDS011;50717;53.360;6.290;2022-12-01T05:03:02;36.03;;;17.92;;
64395;SDS011;50717;53.360;6.290;2022-12-01T05:05:28;30.98;;;16.92;;
64395;SDS011;50717;53.360;6.290;2022-12-01T05:07:54;32.95;;;16.77;;
64395;SDS011;50717;53.360;6.290;2022-12-01T05:10:20;36.13;;;17.13;;
64395;SDS011;50717;53.360;6.290;2022-12-01T05:12:46;33.83;;;17.02;;
64395;SDS011;50717;53.360;6.290;2022-12-01T05:15:12;25.58;;;15.65;;
64395;SDS011;50717;53.360;6.290;2022-12-01T05:17:38;30.27;;;17.33;;
64395;SDS011;50717;53.360;6.290;2022-12-01T05:20:04;27.15;;;16.23;;
64395;SDS011;50717;53.360;6.290;2022-12-01T05:22:49;31.23;;;16.83;;
64395;SDS011;50717;53.360;6.290;2022-12-01T05:25:16;39.28;;;18.88;;
64395;SDS011;50717;53.360;6.290;2022-12-01T05:30:08;34.60;;;17.05;;
64395;SDS011;50717;53.360;6.290;2022-12-01T05:32:35;32.97;;;16.75;;
64395;SDS011;50717;53.360;6.290;2022-12-01T05:35:00;34.55;;;16.48;;
64395;SDS011;50717;53.360;6.290;2022-12-01T05:37:26;29.70;;;15.75;;
64395;SDS011;50717;53.360;6.290;2022-12-01T05:39:57;28.50;;;15.88;;
64395;SDS011;50717;53.360;6.290;2022-12-01T05:42:22;30.55;;;15.48;;
64395;SDS011;50717;53.360;6.290;2022-12-01T05:44:48;31.58;;;16.42;;
64395;SDS011;50717;53.360;6.290;2022-12-01T05:47:14;36.00;;;18.13;;
64395;SDS011;50717;53.360;6.290;2022-12-01T05:49:40;33.88;;;16.75;;
64395;SDS011;50717;53.360;6.290;2022-12-01T05:52:05;32.20;;;16.45;;
64395;SDS011;50717;53.360;6.290;2022-12-01T05:54:31;31.08;;;16.52;;
64395;SDS011;50717;53.360;6.290;2022-12-01T05:56:57;26.30;;;14.88;;
64395;SDS011;50717;53.360;6.290;2022-12-01T05:59:22;30.05;;;16.45;;
64395;SDS011;50717;53.360;6.290;2022-12-01T06:01:48;30.90;;;15.93;;
64395;SDS011;50717;53.360;6.290;2022-12-01T06:04:14;31.38;;;15.98;;
64395;SDS011;50717;53.360;6.290;2022-12-01T06:06:39;30.17;;;15.43;;
64395;SDS011;50717;53.360;6.290;2022-12-01T06:09:05;31.73;;;16.60;;
64395;SDS011;50717;53.360;6.290;2022-12-01T06:11:32;32.08;;;15.85;;
64395;SDS011;50717;53.360;6.290;2022-12-01T06:13:58;33.45;;;16.30;;
64395;SDS011;50717;53.360;6.290;2022-12-01T06:16:24;30.92;;;15.75;;
64395;SDS011;50717;53.360;6.290;2022-12-01T06:18:49;32.10;;;16.13;;
64395;SDS011;50717;53.360;6.290;2022-12-01T06:21:15;31.95;;;16.48;;
64395;SDS011;50717;53.360;6.290;2022-12-01T06:23:41;28.48;;;14.85;;
64395;SDS011;50717;53.360;6.290;2022-12-01T06:26:06;27.40;;;15.38;;
64395;SDS011;50717;53.360;6.290;2022-12-01T06:28:32;29.00;;;14.50;;
64395;SDS011;50717;53.360;6.290;2022-12-01T06:30:58;36.08;;;15.23;;
64395;SDS011;50717;53.360;6.290;2022-12-01T06:33:23;31.92;;;14.70;;
64395;SDS011;50717;53.360;6.290;2022-12-01T06:35:55;27.70;;;14.43;;
64395;SDS011;50717;53.360;6.290;2022-12-01T06:38:22;32.30;;;15.18;;
64395;SDS011;50717;53.360;6.290;2022-12-01T06:40:48;30.25;;;14.75;;
64395;SDS011;50717;53.360;6.290;2022-12-01T06:43:14;27.15;;;13.50;;
64395;SDS011;50717;53.360;6.290;2022-12-01T06:45:39;26.00;;;13.63;;
64395;SDS011;50717;53.360;6.290;2022-12-01T06:48:05;25.92;;;13.45;;
64395;SDS011;50717;53.360;6.290;2022-12-01T06:50:31;22.77;;;12.07;;
64395;SDS011;50717;53.360;6.290;2022-12-01T06:52:56;23.15;;;12.95;;
64395;SDS011;50717;53.360;6.290;2022-12-01T06:55:22;22.83;;;12.05;;
64395;SDS011;50717;53.360;6.290;2022-12-01T06:57:49;23.95;;;12.48;;
64395;SDS011;50717;53.360;6.290;2022-12-01T07:00:15;22.85;;;12.00;;
64395;SDS011;50717;53.360;6.290;2022-12-01T07:02:41;28.08;;;12.20;;
64395;SDS011;50717;53.360;6.290;2022-12-01T07:05:07;26.02;;;13.00;;
64395;SDS011;50717;53.360;6.290;2022-12-01T07:07:36;29.83;;;12.63;;
64395;SDS011;50717;53.360;6.290;2022-12-01T07:10:03;23.73;;;12.35;;
64395;SDS011;50717;53.360;6.290;2022-12-01T07:12:29;22.60;;;10.95;;
64395;SDS011;50717;53.360;6.290;2022-12-01T07:14:55;23.45;;;11.80;;
64395;SDS011;50717;53.360;6.290;2022-12-01T07:19:47;23.90;;;11.00;;
64395;SDS011;50717;53.360;6.290;2022-12-01T07:22:13;23.85;;;12.07;;
64395;SDS011;50717;53.360;6.290;2022-12-01T07:24:39;22.55;;;11.48;;
64395;SDS011;50717;53.360;6.290;2022-12-01T07:27:05;23.52;;;11.57;;
64395;SDS011;50717;53.360;6.290;2022-12-01T07:29:31;21.58;;;12.25;;
64395;SDS011;50717;53.360;6.290;2022-12-01T07:31:57;21.00;;;10.93;;
64395;SDS011;50717;53.360;6.290;2022-12-01T07:34:23;20.70;;;11.32;;
64395;SDS011;50717;53.360;6.290;2022-12-01T07:36:48;24.35;;;12.07;;
64395;SDS011;50717;53.360;6.290;2022-12-01T07:39:14;21.98;;;11.07;;
64395;SDS011;50717;53.360;6.290;2022-12-01T07:41:40;23.38;;;12.05;;
64395;SDS011;50717;53.360;6.290;2022-12-01T07:44:05;23.23;;;12.52;;
64395;SDS011;50717;53.360;6.290;2022-12-01T07:46:31;27.60;;;17.20;;
64395;SDS011;50717;53.360;6.290;2022-12-01T07:48:57;18.92;;;12.15;;
64395;SDS011;50717;53.360;6.290;2022-12-01T07:51:24;24.88;;;13.80;;
64395;SDS011;50717;53.360;6.290;2022-12-01T07:53:50;26.15;;;15.18;;
64395;SDS011;50717;53.360;6.290;2022-12-01T07:56:18;21.30;;;12.77;;
64395;SDS011;50717;53.360;6.290;2022-12-01T07:58:44;26.38;;;13.88;;
64395;SDS011;50717;53.360;6.290;2022-12-01T08:01:11;26.67;;;13.90;;
64395;SDS011;50717;53.360;6.290;2022-12-01T08:03:37;23.30;;;12.77;;
64395;SDS011;50717;53.360;6.290;2022-12-01T08:08:30;24.30;;;12.68;;
64395;SDS011;50717;53.360;6.290;2022-12-01T08:11:00;29.63;;;13.68;;
64395;SDS011;50717;53.360;6.290;2022-12-01T08:13:28;26.45;;;13.65;;
64395;SDS011;50717;53.360;6.290;2022-12-01T08:18:21;21.85;;;12.18;;
64395;SDS011;50717;53.360;6.290;2022-12-01T08:20:47;27.92;;;12.80;;
64395;SDS011;50717;53.360;6.290;2022-12-01T08:23:13;24.75;;;13.02;;
64395;SDS011;50717;53.360;6.290;2022-12-01T08:25:40;27.83;;;14.35;;
64395;SDS011;50717;53.360;6.290;2022-12-01T08:28:05;26.20;;;14.60;;
64395;SDS011;50717;53.360;6.290;2022-12-01T08:30:31;28.13;;;13.70;;
64395;SDS011;50717;53.360;6.290;2022-12-01T08:32:57;30.08;;;13.93;;
64395;SDS011;50717;53.360;6.290;2022-12-01T08:35:23;30.75;;;14.45;;
64395;SDS011;50717;53.360;6.290;2022-12-01T08:37:52;26.30;;;13.80;;
64395;SDS011;50717;53.360;6.290;2022-12-01T08:40:18;25.88;;;14.23;;
64395;SDS011;50717;53.360;6.290;2022-12-01T08:42:44;29.33;;;14.23;;
64395;SDS011;50717;53.360;6.290;2022-12-01T08:45:10;26.92;;;14.13;;
64395;SDS011;50717;53.360;6.290;2022-12-01T08:47:36;28.40;;;13.70;;
64395;SDS011;50717;53.360;6.290;2022-12-01T08:50:02;27.00;;;13.80;;
64395;SDS011;50717;53.360;6.290;2022-12-01T08:52:32;28.73;;;14.35;;
64395;SDS011;50717;53.360;6.290;2022-12-01T08:54:58;28.90;;;14.73;;
64395;SDS011;50717;53.360;6.290;2022-12-01T08:57:24;33.97;;;15.32;;
64395;SDS011;50717;53.360;6.290;2022-12-01T08:59:49;30.42;;;15.13;;
64395;SDS011;50717;53.360;6.290;2022-12-01T09:02:15;29.20;;;13.85;;
64395;SDS011;50717;53.360;6.290;2022-12-01T09:04:46;32.97;;;15.52;;
64395;SDS011;50717;53.360;6.290;2022-12-01T09:07:13;33.65;;;16.50;;
64395;SDS011;50717;53.360;6.290;2022-12-01T09:09:40;30.23;;;15.30;;
64395;SDS011;50717;53.360;6.290;2022-12-01T09:12:07;28.58;;;15.02;;
64395;SDS011;50717;53.360;6.290;2022-12-01T09:14:37;29.38;;;14.93;;
64395;SDS011;50717;53.360;6.290;2022-12-01T09:17:04;33.92;;;16.48;;
64395;SDS011;50717;53.360;6.290;2022-12-01T09:19:30;28.67;;;15.25;;
64395;SDS011;50717;53.360;6.290;2022-12-01T09:21:55;28.15;;;14.75;;
64395;SDS011;50717;53.360;6.290;2022-12-01T09:24:21;28.67;;;15.23;;
64395;SDS011;50717;53.360;6.290;2022-12-01T09:26:47;30.48;;;14.68;;
64395;SDS011;50717;53.360;6.290;2022-12-01T09:29:14;33.60;;;15.68;;
64395;SDS011;50717;53.360;6.290;2022-12-01T09:31:40;30.10;;;15.00;;
64395;SDS011;50717;53.360;6.290;2022-12-01T09:34:09;32.25;;;15.77;;
64395;SDS011;50717;53.360;6.290;2022-12-01T09:36:37;31.10;;;14.93;;
64395;SDS011;50717;53.360;6.290;2022-12-01T09:39:03;29.98;;;15.38;;
64395;SDS011;50717;53.360;6.290;2022-12-01T09:41:38;30.02;;;15.13;;
64395;SDS011;50717;53.360;6.290;2022-12-01T09:44:12;28.23;;;14.15;;
64395;SDS011;50717;53.360;6.290;2022-12-01T09:46:56;27.17;;;13.13;;
64395;SDS011;50717;53.360;6.290;2022-12-01T09:49:37;29.30;;;12.93;;
64395;SDS011;50717;53.360;6.290;2022-12-01T09:52:15;27.08;;;13.05;;
64395;SDS011;50717;53.360;6.290;2022-12-01T09:54:44;27.77;;;14.27;;
64395;SDS011;50717;53.360;6.290;2022-12-01T09:57:15;24.00;;;12.57;;
64395;SDS011;50717;53.360;6.290;2022-12-01T09:59:46;30.95;;;14.48;;
64395;SDS011;50717;53.360;6.290;2022-12-01T10:02:23;24.13;;;12.52;;
64395;SDS011;50717;53.360;6.290;2022-12-01T10:04:57;25.50;;;12.60;;
64395;SDS011;50717;53.360;6.290;2022-12-01T10:07:27;23.80;;;12.88;;
64395;SDS011;50717;53.360;6.290;2022-12-01T10:10:03;24.80;;;11.85;;
64395;SDS011;50717;53.360;6.290;2022-12-01T10:12:32;25.73;;;12.18;;
64395;SDS011;50717;53.360;6.290;2022-12-01T10:20:32;21.35;;;11.52;;
64395;SDS011;50717;53.360;6.290;2022-12-01T10:23:24;24.00;;;12.25;;
64395;SDS011;50717;53.360;6.290;2022-12-01T10:26:09;21.58;;;11.00;;
64395;SDS011;50717;53.360;6.290;2022-12-01T10:34:37;20.05;;;11.35;;
64395;SDS011;50717;53.360;6.290;2022-12-01T10:37:05;21.60;;;10.90;;
64395;SDS011;50717;53.360;6.290;2022-12-01T10:39:45;21.65;;;10.68;;
64395;SDS011;50717;53.360;6.290;2022-12-01T10:42:35;16.20;;;10.57;;
64395;SDS011;50717;53.360;6.290;2022-12-01T10:45:05;19.00;;;11.80;;
64395;SDS011;50717;53.360;6.290;2022-12-01T10:47:39;17.58;;;11.48;;
64395;SDS011;50717;53.360;6.290;2022-12-01T10:50:49;18.00;;;11.30;;
64395;SDS011;50717;53.360;6.290;2022-12-01T10:56:22;15.85;;;10.18;;
64395;SDS011;50717;53.360;6.290;2022-12-01T10:58:46;16.02;;;9.98;;
64395;SDS011;50717;53.360;6.290;2022-12-01T11:01:22;20.02;;;10.90;;
64395;SDS011;50717;53.360;6.290;2022-12-01T11:06:21;19.50;;;10.55;;
64395;SDS011;50717;53.360;6.290;2022-12-01T11:08:50;18.30;;;10.27;;
64395;SDS011;50717;53.360;6.290;2022-12-01T11:11:26;18.20;;;10.20;;
64395;SDS011;50717;53.360;6.290;2022-12-01T11:13:58;15.77;;;9.55;;
64395;SDS011;50717;53.360;6.290;2022-12-01T11:19:31;17.52;;;10.90;;
64395;SDS011;50717;53.360;6.290;2022-12-01T11:22:16;20.23;;;11.68;;
64395;SDS011;50717;53.360;6.290;2022-12-01T11:27:23;19.15;;;11.70;;
64395;SDS011;50717;53.360;6.290;2022-12-01T11:29:51;19.35;;;11.60;;
64395;SDS011;50717;53.360;6.290;2022-12-01T11:32:21;21.13;;;12.40;;
64395;SDS011;50717;53.360;6.290;2022-12-01T11:37:24;22.83;;;13.00;;
64395;SDS011;50717;53.360;6.290;2022-12-01T11:39:53;21.27;;;12.80;;
64395;SDS011;50717;53.360;6.290;2022-12-01T11:42:28;22.75;;;13.50;;
64395;SDS011;50717;53.360;6.290;2022-12-01T11:47:29;22.02;;;13.70;;
64395;SDS011;50717;53.360;6.290;2022-12-01T11:49:56;31.33;;;15.05;;
64395;SDS011;50717;53.360;6.290;2022-12-01T11:52:25;22.80;;;13.65;;
64395;SDS011;50717;53.360;6.290;2022-12-01T11:55:39;21.63;;;13.10;;
64395;SDS011;50717;53.360;6.290;2022-12-01T11:57:44;19.50;;;11.05;;
64395;SDS011;50717;53.360;6.290;2022-12-01T12:00:13;20.00;;;11.38;;
64395;SDS011;50717;53.360;6.290;2022-12-01T12:11:19;19.65;;;11.85;;
64395;SDS011;50717;53.360;6.290;2022-12-01T12:24:56;24.55;;;13.70;;
64395;SDS011;50717;53.360;6.290;2022-12-01T12:30:26;28.45;;;15.95;;
64395;SDS011;50717;53.360;6.290;2022-12-01T12:41:53;49.65;;;24.35;;
64395;SDS011;50717;53.360;6.290;2022-12-01T12:47:05;42.47;;;21.90;;
64395;SDS011;50717;53.360;6.290;2022-12-01T12:49:42;48.95;;;24.58;;
64395;SDS011;50717;53.360;6.290;2022-12-01T12:52:22;50.13;;;23.85;;
64395;SDS011;50717;53.360;6.290;2022-12-01T12:57:50;46.33;;;23.65;;
64395;SDS011;50717;53.360;6.290;2022-12-01T13:00:28;47.67;;;22.70;;
64395;SDS011;50717;53.360;6.290;2022-12-01T13:03:14;46.65;;;23.73;;
64395;SDS011;50717;53.360;6.290;2022-12-01T13:13:32;54.13;;;25.45;;
64395;SDS011;50717;53.360;6.290;2022-12-01T13:16:09;51.38;;;25.15;;
64395;SDS011;50717;53.360;6.290;2022-12-01T13:18:52;56.70;;;26.63;;
64395;SDS011;50717;53.360;6.290;2022-12-01T13:21:27;53.33;;;26.17;;
64395;SDS011;50717;53.360;6.290;2022-12-01T13:23:57;47.70;;;23.98;;
64395;SDS011;50717;53.360;6.290;2022-12-01T13:26:23;45.05;;;23.02;;
64395;SDS011;50717;53.360;6.290;2022-12-01T13:28:52;47.72;;;24.80;;
64395;SDS011;50717;53.360;6.290;2022-12-01T13:31:21;54.08;;;25.23;;
64395;SDS011;50717;53.360;6.290;2022-12-01T13:34:00;53.05;;;25.73;;
64395;SDS011;50717;53.360;6.290;2022-12-01T13:36:29;50.72;;;26.50;;
64395;SDS011;50717;53.360;6.290;2022-12-01T13:39:03;59.30;;;26.58;;
64395;SDS011;50717;53.360;6.290;2022-12-01T13:41:35;54.78;;;25.88;;
64395;SDS011;50717;53.360;6.290;2022-12-01T13:49:28;60.08;;;26.75;;
64395;SDS011;50717;53.360;6.290;2022-12-01T13:57:41;56.72;;;27.60;;
64395;SDS011;50717;53.360;6.290;2022-12-01T14:00:29;62.00;;;28.20;;
64395;SDS011;50717;53.360;6.290;2022-12-01T14:08:13;55.90;;;27.77;;
64395;SDS011;50717;53.360;6.290;2022-12-01T14:10:42;62.50;;;28.20;;
64395;SDS011;50717;53.360;6.290;2022-12-01T14:13:45;58.70;;;28.83;;
64395;SDS011;50717;53.360;6.290;2022-12-01T14:16:14;62.78;;;29.55;;
64395;SDS011;50717;53.360;6.290;2022-12-01T14:18:54;66.47;;;29.83;;
64395;SDS011;50717;53.360;6.290;2022-12-01T14:21:44;58.67;;;28.63;;
64395;SDS011;50717;53.360;6.290;2022-12-01T14:24:18;61.22;;;30.15;;
64395;SDS011;50717;53.360;6.290;2022-12-01T14:26:49;62.20;;;28.92;;
64395;SDS011;50717;53.360;6.290;2022-12-01T14:32:17;64.30;;;30.67;;
64395;SDS011;50717;53.360;6.290;2022-12-01T14:34:45;65.70;;;30.83;;
64395;SDS011;50717;53.360;6.290;2022-12-01T14:37:16;68.38;;;31.35;;
64395;SDS011;50717;53.360;6.290;2022-12-01T14:39:50;67.68;;;30.63;;
64395;SDS011;50717;53.360;6.290;2022-12-01T14:45:24;68.90;;;31.77;;
64395;SDS011;50717;53.360;6.290;2022-12-01T14:47:56;71.70;;;30.33;;
64395;SDS011;50717;53.360;6.290;2022-12-01T14:50:36;62.72;;;30.95;;
64395;SDS011;50717;53.360;6.290;2022-12-01T14:53:15;64.43;;;29.90;;
64395;SDS011;50717;53.360;6.290;2022-12-01T14:55:48;57.53;;;28.45;;
64395;SDS011;50717;53.360;6.290;2022-12-01T14:58:19;58.35;;;29.98;;
64395;SDS011;50717;53.360;6.290;2022-12-01T15:01:05;61.88;;;31.25;;
64395;SDS011;50717;53.360;6.290;2022-12-01T15:03:35;60.08;;;30.73;;
64395;SDS011;50717;53.360;6.290;2022-12-01T15:06:22;63.35;;;31.13;;
64395;SDS011;50717;53.360;6.290;2022-12-01T15:14:20;61.63;;;30.17;;
64395;SDS011;50717;53.360;6.290;2022-12-01T15:16:48;68.57;;;31.08;;
64395;SDS011;50717;53.360;6.290;2022-12-01T15:19:48;63.10;;;29.45;;
64395;SDS011;50717;53.360;6.290;2022-12-01T15:22:14;73.68;;;37.78;;
64395;SDS011;50717;53.360;6.290;2022-12-01T15:24:41;62.85;;;33.47;;
64395;SDS011;50717;53.360;6.290;2022-12-01T15:27:28;70.47;;;34.38;;
64395;SDS011;50717;53.360;6.290;2022-12-01T15:29:55;66.43;;;32.97;;
64395;SDS011;50717;53.360;6.290;2022-12-01T15:32:22;63.55;;;32.55;;
64395;SDS011;50717;53.360;6.290;2022-12-01T15:34:50;66.22;;;32.38;;
64395;SDS011;50717;53.360;6.290;2022-12-01T15:37:19;70.00;;;32.92;;
64395;SDS011;50717;53.360;6.290;2022-12-01T15:39:48;67.25;;;33.10;;
64395;SDS011;50717;53.360;6.290;2022-12-01T15:42:21;74.38;;;34.88;;
64395;SDS011;50717;53.360;6.290;2022-12-01T15:44:55;71.38;;;32.83;;
64395;SDS011;50717;53.360;6.290;2022-12-01T15:50:03;70.78;;;32.88;;
64395;SDS011;50717;53.360;6.290;2022-12-01T15:52:29;72.22;;;33.60;;
64395;SDS011;50717;53.360;6.290;2022-12-01T15:54:56;66.75;;;29.95;;
64395;SDS011;50717;53.360;6.290;2022-12-01T15:57:27;69.28;;;31.27;;
64395;SDS011;50717;53.360;6.290;2022-12-01T15:59:55;70.72;;;32.60;;
64395;SDS011;50717;53.360;6.290;2022-12-01T16:02:23;71.80;;;32.90;;
64395;SDS011;50717;53.360;6.290;2022-12-01T16:05:13;70.50;;;32.50;;
64395;SDS011;50717;53.360;6.290;2022-12-01T16:07:42;72.88;;;33.17;;
64395;SDS011;50717;53.360;6.290;2022-12-01T16:12:49;74.25;;;33.72;;
64395;SDS011;50717;53.360;6.290;2022-12-01T16:15:15;74.53;;;36.88;;
64395;SDS011;50717;53.360;6.290;2022-12-01T16:20:24;75.97;;;34.85;;
64395;SDS011;50717;53.360;6.290;2022-12-01T16:22:56;81.70;;;34.13;;
64395;SDS011;50717;53.360;6.290;2022-12-01T16:25:44;79.72;;;36.45;;
64395;SDS011;50717;53.360;6.290;2022-12-01T16:28:30;76.70;;;34.75;;
64395;SDS011;50717;53.360;6.290;2022-12-01T16:30:59;73.68;;;33.03;;
64395;SDS011;50717;53.360;6.290;2022-12-01T16:33:27;85.90;;;36.75;;
64395;SDS011;50717;53.360;6.290;2022-12-01T16:35:53;80.35;;;36.67;;
64395;SDS011;50717;53.360;6.290;2022-12-01T16:38:23;88.50;;;39.67;;
64395;SDS011;50717;53.360;6.290;2022-12-01T16:40:54;93.15;;;39.85;;
64395;SDS011;50717;53.360;6.290;2022-12-01T16:43:22;100.60;;;41.08;;
64395;SDS011;50717;53.360;6.290;2022-12-01T16:45:49;99.82;;;40.17;;
64395;SDS011;50717;53.360;6.290;2022-12-01T16:48:24;92.10;;;38.95;;
64395;SDS011;50717;53.360;6.290;2022-12-01T16:50:50;98.65;;;41.42;;
64395;SDS011;50717;53.360;6.290;2022-12-01T16:53:17;99.90;;;41.00;;
64395;SDS011;50717;53.360;6.290;2022-12-01T16:58:11;95.22;;;41.60;;
64395;SDS011;50717;53.360;6.290;2022-12-01T17:00:38;98.28;;;40.97;;
64395;SDS011;50717;53.360;6.290;2022-12-01T17:03:04;91.05;;;40.72;;
64395;SDS011;50717;53.360;6.290;2022-12-01T17:07:56;91.65;;;39.47;;
64395;SDS011;50717;53.360;6.290;2022-12-01T17:10:21;88.50;;;39.25;;
64395;SDS011;50717;53.360;6.290;2022-12-01T17:12:48;95.75;;;39.40;;
64395;SDS011;50717;53.360;6.290;2022-12-01T17:15:14;84.05;;;37.78;;
64395;SDS011;50717;53.360;6.290;2022-12-01T17:17:40;83.65;;;37.60;;
64395;SDS011;50717;53.360;6.290;2022-12-01T17:20:06;86.45;;;38.10;;
64395;SDS011;50717;53.360;6.290;2022-12-01T17:22:32;82.30;;;36.40;;